Time;durP1;ratioP1;P1;durP2;ratioP2;P2;SDS_P1;SDS_P2;PMS_P1;PMS_P2;Temp;Humidity;BMP_temperature;BMP_pressure;BME280_temperature;BME280_humidity;BME280_pressure;Samples;Min_cycle;Max_cycle;Signal;HPM_P1;HPM_P2
2022/09/04 00:00:00;;;;;;;;;8.25;8.25;;;;;20.90;50.97;101333.44;5048830;28;8799;-66
2022/09/04 00:02:55;;;;;;;;;9.00;9.00;;;;;20.90;51.20;101329.84;5036526;28;8836;-67
2022/09/04 00:05:40;;;;;;;;;9.25;9.25;;;;;20.88;51.16;101335.59;5053433;28;8856;-66
2022/09/04 00:08:21;;;;;;;;;8.75;8.25;;;;;20.84;51.40;101331.69;5053045;28;8945;-66
2022/09/04 00:10:57;;;;;;;;;7.25;7.25;;;;;20.81;51.34;101332.19;5040162;28;8840;-65
2022/09/04 00:13:34;;;;;;;;;7.75;7.75;;;;;20.81;51.03;101345.03;5049308;28;8830;-66
2022/09/04 00:16:26;;;;;;;;;10.25;9.50;;;;;20.78;51.31;101349.09;5041097;28;8842;-66
2022/09/04 00:19:06;;;;;;;;;9.50;8.75;;;;;20.75;51.52;101349.63;5037489;28;8830;-66
2022/09/04 00:21:38;;;;;;;;;8.50;8.50;;;;;20.71;51.52;101341.09;5048893;28;8861;-66
2022/09/04 00:24:14;;;;;;;;;9.50;8.50;;;;;20.67;51.49;101347.31;5048530;28;8972;-66
2022/09/04 00:26:57;;;;;;;;;7.25;7.25;;;;;20.66;51.35;101346.47;5046366;28;8841;-67
2022/09/04 00:29:39;;;;;;;;;9.00;9.00;;;;;20.67;51.49;101350.03;5051658;28;8899;-66
2022/09/04 00:32:30;;;;;;;;;10.75;10.75;;;;;20.65;51.55;101354.91;5046276;28;8829;-66
2022/09/04 00:35:17;;;;;;;;;12.50;12.50;;;;;20.60;51.49;101357.56;5037186;28;8828;-66
2022/09/04 00:37:52;;;;;;;;;11.25;11.25;;;;;20.57;51.48;101350.69;5035799;28;9623;-66
2022/09/04 00:40:30;;;;;;;;;9.75;9.00;;;;;20.60;51.49;101357.56;5034150;28;8830;-66
2022/09/04 00:43:19;;;;;;;;;10.75;9.25;;;;;20.59;51.69;101361.41;5041773;28;8848;-66
2022/09/04 00:46:05;;;;;;;;;17.25;14.00;;;;;20.59;51.53;101359.50;5037264;28;8832;-66
2022/09/04 00:49:02;;;;;;;;;9.25;9.25;;;;;20.59;51.59;101362.22;5036725;28;8915;-66
2022/09/04 00:51:40;;;;;;;;;13.50;13.50;;;;;20.58;51.61;101367.91;5041107;28;8826;-66
2022/09/04 00:54:13;;;;;;;;;11.75;11.75;;;;;20.55;51.80;101369.28;5029201;28;8855;-67
2022/09/04 00:57:00;;;;;;;;;11.25;10.50;;;;;20.55;51.77;101369.28;5044759;28;8881;-66
2022/09/04 00:59:51;;;;;;;;;1.00;1.00;;;;;20.54;51.98;101375.81;5040556;28;8839;-66
2022/09/04 01:02:30;;;;;;;;;12.50;12.50;;;;;20.55;51.99;101372.00;5045106;28;8822;-66
2022/09/04 01:05:06;;;;;;;;;9.25;9.25;;;;;20.52;52.21;101377.97;5048474;28;8818;-66
2022/09/04 01:07:48;;;;;;;;;14.00;13.00;;;;;20.54;52.07;101385.91;5040306;28;8833;-66
2022/09/04 01:10:35;;;;;;;;;11.00;11.00;;;;;20.52;52.36;101391.63;5041859;28;8871;-67
2022/09/04 01:13:23;;;;;;;;;11.00;9.25;;;;;20.51;52.37;101379.03;5030108;28;8938;-66
2022/09/04 01:16:21;;;;;;;;;11.25;11.25;;;;;20.52;52.33;101388.91;5040085;28;8845;-66
2022/09/04 01:18:57;;;;;;;;;9.75;9.75;;;;;20.52;52.51;101390.81;5044701;28;8883;-67
2022/09/04 01:22:01;;;;;;;;;10.50;10.50;;;;;20.51;52.77;101391.91;5050768;28;8848;-66
2022/09/04 01:24:57;;;;;;;;;12.50;12.00;;;;;20.47;52.80;101386.88;5031684;28;8828;-66
2022/09/04 01:27:40;;;;;;;;;12.75;11.75;;;;;20.47;52.72;101391.53;5036205;28;8896;-68
2022/09/04 01:30:18;;;;;;;;;12.00;12.00;;;;;20.44;52.87;101398.31;5041844;28;8852;-67
2022/09/04 01:33:06;;;;;;;;;14.00;14.00;;;;;20.42;53.00;101400.47;5030740;28;8922;-67
2022/09/04 01:36:01;;;;;;;;;11.00;11.00;;;;;20.43;52.90;101393.91;5048481;28;8834;-67
2022/09/04 01:38:52;;;;;;;;;15.33;12.00;;;;;20.34;53.18;101389.94;5040366;28;9798;-67
2022/09/04 01:41:37;;;;;;;;;12.75;10.25;;;;;20.35;53.13;101393.50;5043551;28;8960;-67
2022/09/04 01:44:06;;;;;;;;;15.25;14.25;;;;;20.34;53.08;101395.41;5034427;28;8829;-67
2022/09/04 01:46:36;;;;;;;;;14.75;13.75;;;;;20.34;53.05;101400.88;5046488;28;8829;-67
2022/09/04 01:49:09;;;;;;;;;12.00;11.50;;;;;20.36;53.27;101401.44;5035709;28;8895;-67
2022/09/04 01:51:44;;;;;;;;;12.25;11.00;;;;;20.37;53.19;101402.25;5047572;28;8841;-68
2022/09/04 01:54:25;;;;;;;;;16.00;16.00;;;;;20.34;53.40;101402.78;5037917;28;8943;-67
2022/09/04 01:57:21;;;;;;;;;10.67;10.67;;;;;20.31;53.78;101406.00;5033317;28;8999;-67
2022/09/04 01:59:58;;;;;;;;;14.50;14.50;;;;;20.25;53.86;101405.06;5046119;28;9041;-67
2022/09/04 02:02:40;;;;;;;;;13.33;12.33;;;;;20.21;53.90;101404.72;5047853;28;8980;-67
2022/09/04 02:05:24;;;;;;;;;17.00;15.75;;;;;20.19;54.02;101406.88;5040846;28;8971;-67
2022/09/04 02:08:05;;;;;;;;;16.00;15.67;;;;;20.16;54.19;101414.72;5036119;28;8875;-67
2022/09/04 02:10:53;;;;;;;;;16.00;14.33;;;;;20.10;54.27;101413.81;5038751;28;8916;-67
2022/09/04 02:13:44;;;;;;;;;14.00;14.00;;;;;20.07;54.50;101429.88;5043006;28;9089;-67
2022/09/04 02:16:21;;;;;;;;;13.00;12.50;;;;;20.02;54.68;101422.41;5048241;28;9060;-65
2022/09/04 02:19:01;;;;;;;;;16.00;16.00;;;;;19.99;54.75;101417.41;5042222;28;8856;-66
2022/09/04 02:21:43;;;;;;;;;15.67;15.00;;;;;20.01;54.55;101423.44;5032970;28;8971;-66
2022/09/04 02:24:28;;;;;;;;;16.33;14.33;;;;;20.01;54.62;101423.44;5041025;28;9000;-66
2022/09/04 02:27:07;;;;;;;;;17.00;16.33;;;;;20.02;54.69;101416.09;5041636;28;8953;-66
2022/09/04 02:29:50;;;;;;;;;21.67;21.00;;;;;20.01;54.72;101423.44;5038878;28;9650;-66
2022/09/04 02:32:30;;;;;;;;;16.33;16.33;;;;;19.99;54.87;101434.63;5029981;28;10052;-66
2022/09/04 02:35:02;;;;;;;;;15.67;15.67;;;;;19.99;54.91;101431.06;5037077;28;9682;-66
2022/09/04 02:37:54;;;;;;;;;17.00;17.00;;;;;19.95;54.97;101425.25;5043669;28;9085;-66
2022/09/04 02:40:45;;;;;;;;;12.67;12.33;;;;;19.94;55.14;101433.72;5032619;28;9148;-66
2022/09/04 02:43:21;;;;;;;;;15.00;14.33;;;;;19.92;55.14;101431.19;5038911;28;8995;-66
2022/09/04 02:46:01;;;;;;;;;17.50;16.50;;;;;19.92;55.32;101431.19;5038099;28;8995;-66
2022/09/04 02:48:41;;;;;;;;;16.00;16.00;;;;;19.91;55.39;101428.72;5041836;28;8941;-66
2022/09/04 02:51:27;;;;;;;;;20.33;20.00;;;;;19.90;55.32;101436.09;5038375;28;8995;-66
2022/09/04 02:54:05;;;;;;;;;21.00;19.67;;;;;19.87;55.61;101442.03;5042608;28;9316;-66
2022/09/04 02:56:58;;;;;;;;;18.33;18.33;;;;;19.85;55.57;101438.72;5053268;28;9230;-66
2022/09/04 02:59:48;;;;;;;;;19.33;19.33;;;;;19.80;55.68;101435.03;5038296;28;9186;-66
2022/09/04 03:02:42;;;;;;;;;18.00;18.00;;;;;19.79;55.87;101441.59;5037590;28;9133;-66
2022/09/04 03:05:19;;;;;;;;;15.00;15.00;;;;;19.76;56.03;101449.16;5046140;28;9157;-66
2022/09/04 03:07:54;;;;;;;;;21.67;20.00;;;;;19.75;55.97;101443.97;5028307;28;9063;-66
2022/09/04 03:10:33;;;;;;;;;17.00;17.00;;;;;19.71;56.21;101451.81;5044549;28;9329;-66
2022/09/04 03:13:08;;;;;;;;;22.00;21.67;;;;;19.68;56.36;101462.38;5042545;28;10024;-66
2022/09/04 03:15:59;;;;;;;;;19.67;19.67;;;;;19.63;56.33;101452.16;5040749;28;9223;-66
2022/09/04 03:18:32;;;;;;;;;18.00;16.67;;;;;19.62;56.46;101455.16;5037759;28;9238;-66
2022/09/04 03:21:26;;;;;;;;;18.00;16.33;;;;;19.59;56.77;101461.06;5036752;28;9198;-66
2022/09/04 03:24:21;;;;;;;;;20.00;18.00;;;;;19.59;56.82;101461.06;5043345;28;9220;-66
2022/09/04 03:26:53;;;;;;;;;19.33;18.67;;;;;19.57;56.84;101468.63;5035861;28;9228;-66
2022/09/04 03:29:32;;;;;;;;;23.33;22.33;;;;;19.55;56.84;101470.78;5047081;28;9305;-66
2022/09/04 03:32:07;;;;;;;;;21.67;20.00;;;;;19.53;57.11;101471.03;5036726;28;9576;-66
2022/09/04 03:35:09;;;;;;;;;20.33;19.00;;;;;19.51;57.09;101465.81;5034279;28;10202;-66
2022/09/04 03:38:04;;;;;;;;;19.00;19.00;;;;;19.48;57.23;101482.66;5046023;28;9397;-66
2022/09/04 03:41:04;;;;;;;;;17.00;16.33;;;;;19.45;57.59;101476.88;5041101;28;9240;-66
2022/09/04 03:43:54;;;;;;;;;17.00;16.33;;;;;19.43;57.65;101479.81;5037166;28;9340;-66
2022/09/04 03:46:35;;;;;;;;;18.00;17.33;;;;;19.46;57.51;101475.78;5045258;28;9331;-67
2022/09/04 03:49:17;;;;;;;;;19.00;16.33;;;;;19.44;57.39;101480.66;5037624;28;9198;-67
2022/09/04 03:52:16;;;;;;;;;20.00;19.67;;;;;19.45;57.64;101485.06;5033081;28;9482;-66
2022/09/04 03:54:49;;;;;;;;;17.33;17.33;;;;;19.44;57.88;101488.84;5028571;28;9492;-66
2022/09/04 03:57:31;;;;;;;;;21.33;19.67;;;;;19.39;57.85;101491.47;5045873;28;9385;-66
2022/09/04 04:00:00;;;;;;;;;16.33;15.67;;;;;19.36;58.20;101495.47;5039644;28;9466;-66
2022/09/04 04:02:42;;;;;;;;;21.33;20.67;;;;;19.36;58.24;101494.66;5040542;28;9340;-66
2022/09/04 04:05:26;;;;;;;;;21.67;21.67;;;;;19.36;58.18;101500.94;5046578;28;9218;-66
2022/09/04 04:08:03;;;;;;;;;22.00;20.67;;;;;19.35;58.46;101499.28;5047432;28;9433;-67
2022/09/04 04:10:57;;;;;;;;;18.67;17.67;;;;;19.35;58.49;101501.19;5041463;28;9434;-66
2022/09/04 04:13:54;;;;;;;;;23.00;19.33;;;;;19.34;58.48;101507.72;5040029;28;9238;-66
2022/09/04 04:16:26;;;;;;;;;19.33;19.33;;;;;19.31;58.64;101498.09;5052329;28;9391;-66
2022/09/04 04:19:19;;;;;;;;;21.00;19.67;;;;;19.32;58.81;101505.22;5047089;28;9317;-66
2022/09/04 04:22:17;;;;;;;;;27.00;23.00;;;;;19.31;58.67;101509.00;5044167;28;9376;-66
2022/09/04 04:24:53;;;;;;;;;19.33;19.33;;;;;19.29;58.80;101507.59;5042709;28;9314;-65
2022/09/04 04:27:52;;;;;;;;;22.00;22.00;;;;;19.24;59.11;101498.22;5049038;28;9348;-66
2022/09/04 04:30:19;;;;;;;;;22.33;22.00;;;;;19.24;59.62;101511.00;5036450;28;9465;-65
2022/09/04 04:32:59;;;;;;;;;22.67;21.33;;;;;19.20;59.52;101504.38;5045827;28;9232;-66
2022/09/04 04:35:34;;;;;;;;;20.00;20.00;;;;;19.19;59.73;101509.00;5034400;28;9109;-67
2022/09/04 04:38:17;;;;;;;;;22.33;22.00;;;;;19.19;59.62;101506.25;5044697;28;9300;-66
2022/09/04 04:41:20;;;;;;;;;26.00;19.33;;;;;19.21;59.85;101515.06;5045538;28;9300;-66
2022/09/04 04:44:14;;;;;;;;;23.33;23.33;;;;;19.17;59.83;101521.25;5036878;28;10043;-66
2022/09/04 04:47:15;;;;;;;;;24.00;22.50;;;;;19.14;59.99;101514.34;5042896;28;9300;-66
2022/09/04 04:50:07;;;;;;;;;23.00;21.00;;;;;19.14;60.30;101518.97;5048999;28;10282;-67
2022/09/04 04:53:01;;;;;;;;;21.67;21.67;;;;;19.12;60.20;101521.94;5038482;28;9509;-67
2022/09/04 04:55:49;;;;;;;;;21.00;18.50;;;;;19.11;60.39;101527.63;5043164;28;9401;-66
2022/09/04 04:58:54;;;;;;;;;20.00;20.00;;;;;19.09;60.47;101522.41;5043711;28;9470;-66
2022/09/04 05:01:21;;;;;;;;;19.33;16.33;;;;;19.10;60.62;101524.06;5046383;28;9376;-67
2022/09/04 05:04:17;;;;;;;;;21.67;19.67;;;;;19.12;60.71;101532.00;5046073;28;9916;-66
2022/09/04 05:07:13;;;;;;;;;20.33;20.33;;;;;19.09;60.94;101537.94;5037109;28;9462;-67
2022/09/04 05:09:57;;;;;;;;;25.00;24.00;;;;;19.06;60.88;101539.25;5044219;28;10043;-67
2022/09/04 05:12:23;;;;;;;;;25.25;25.25;;;;;19.02;61.22;101538.03;5047424;28;10132;-66
2022/09/04 05:15:03;;;;;;;;;21.25;21.25;;;;;19.01;61.22;101547.31;5049876;28;9672;-66
2022/09/04 05:17:46;;;;;;;;;21.33;19.33;;;;;19.00;61.54;101551.09;5049544;28;9640;-66
2022/09/04 05:20:38;;;;;;;;;22.50;20.50;;;;;19.00;61.50;101553.84;5034942;28;10003;-66
2022/09/04 05:23:15;;;;;;;;;21.00;21.00;;;;;18.99;61.51;101561.16;5040587;28;9367;-66
2022/09/04 05:25:53;;;;;;;;;17.00;16.00;;;;;18.95;61.86;101557.22;5045012;28;9441;-67
2022/09/04 05:28:28;;;;;;;;;21.33;18.33;;;;;18.95;61.95;101570.88;5046496;28;9452;-66
2022/09/04 05:31:19;;;;;;;;;19.33;18.33;;;;;18.96;61.99;101574.47;5029897;28;9301;-66
2022/09/04 05:34:15;;;;;;;;;25.25;22.00;;;;;18.95;62.12;101575.50;5041617;28;9401;-66
2022/09/04 05:37:02;;;;;;;;;19.67;19.67;;;;;18.96;62.27;101579.91;4990282;28;9613;-67
2022/09/04 05:39:42;;;;;;;;;21.67;20.00;;;;;18.97;61.99;101587.03;5041430;28;9231;-67
2022/09/04 05:42:54;;;;;;;;;22.25;21.25;;;;;18.98;61.91;101596.88;5039609;28;9328;-66
2022/09/04 05:45:56;;;;;;;;;23.75;22.25;;;;;18.96;62.28;101593.56;5039411;28;10293;-66
2022/09/04 05:48:57;;;;;;;;;21.67;20.33;;;;;18.95;62.67;101592.69;5041751;28;9635;-66
2022/09/04 05:51:45;;;;;;;;;20.33;19.00;;;;;18.97;62.49;101595.22;5049845;28;9387;-66
2022/09/04 05:54:30;;;;;;;;;26.00;24.00;;;;;18.95;62.68;101592.69;5045557;28;10118;-66
2022/09/04 05:57:10;;;;;;;;;24.50;22.00;;;;;18.93;62.92;101594.84;5045746;28;9346;-66
2022/09/04 06:00:01;;;;;;;;;23.25;23.25;;;;;18.94;62.93;101601.13;5039626;28;9667;-66
2022/09/04 06:02:37;;;;;;;;;21.00;20.50;;;;;18.93;63.17;101594.84;5040932;28;9519;-67
2022/09/04 06:05:28;;;;;;;;;20.67;20.67;;;;;18.96;63.28;101602.56;5049622;28;9458;-66
2022/09/04 06:08:13;;;;;;;;;20.67;20.33;;;;;18.96;63.30;101601.75;5029585;28;9304;-66
2022/09/04 06:11:04;;;;;;;;;25.75;25.25;;;;;18.94;63.16;101604.69;5042741;28;9268;-66
2022/09/04 06:13:49;;;;;;;;;21.33;21.33;;;;;18.97;63.27;101608.84;5039439;28;9401;-66
2022/09/04 06:16:29;;;;;;;;;23.33;19.33;;;;;18.97;63.48;101601.50;5036332;28;9313;-66
2022/09/04 06:19:33;;;;;;;;;23.67;23.67;;;;;18.98;63.41;101607.78;5042151;28;9230;-66
2022/09/04 06:22:05;;;;;;;;;26.25;26.00;;;;;18.99;63.64;101604.81;5033883;28;10172;-66
2022/09/04 06:24:45;;;;;;;;;23.50;23.50;;;;;19.00;63.52;101605.66;5041763;28;9445;-66
2022/09/04 06:27:21;;;;;;;;;27.50;26.50;;;;;19.01;63.67;101604.59;5038542;28;9516;-66
2022/09/04 06:30:11;;;;;;;;;26.00;26.00;;;;;19.00;63.82;101605.66;5040533;28;9528;-66
2022/09/04 06:32:58;;;;;;;;;25.25;23.00;;;;;19.01;64.08;101608.16;5046622;28;9455;-66
2022/09/04 06:35:53;;;;;;;;;25.50;23.50;;;;;19.06;64.04;101617.53;5038619;28;9365;-66
2022/09/04 06:38:45;;;;;;;;;21.00;19.67;;;;;19.12;63.98;101613.88;5044241;28;9658;-66
2022/09/04 06:41:30;;;;;;;;;28.25;28.00;;;;;19.15;63.89;101619.69;5034171;28;9333;-66
2022/09/04 06:44:21;;;;;;;;;29.50;29.50;;;;;19.18;63.94;101624.69;5029720;28;9388;-66
2022/09/04 06:47:05;;;;;;;;;27.25;25.75;;;;;19.22;64.09;101631.38;5032229;28;9572;-66
2022/09/04 06:49:57;;;;;;;;;26.00;24.67;;;;;19.25;63.99;101636.38;5040512;28;9653;-66
2022/09/04 06:52:30;;;;;;;;;25.33;23.00;;;;;19.30;64.12;101634.84;5037118;28;9376;-66
2022/09/04 06:55:12;;;;;;;;;23.67;20.00;;;;;19.35;63.90;101637.69;5040752;28;9466;-66
2022/09/04 06:58:04;;;;;;;;;26.25;25.75;;;;;19.36;63.89;101642.06;5039031;28;9243;-66
2022/09/04 07:00:44;;;;;;;;;22.33;21.33;;;;;19.43;64.17;101640.09;5033547;28;9441;-66
2022/09/04 07:03:29;;;;;;;;;23.67;23.00;;;;;19.48;64.06;101641.03;5040546;28;9312;-66
2022/09/04 07:06:14;;;;;;;;;19.00;19.00;;;;;19.55;63.91;101629.19;5045619;28;9293;-66
2022/09/04 07:09:07;;;;;;;;;19.00;18.67;;;;;19.62;63.67;101640.88;5044600;28;9175;-67
2022/09/04 07:12:06;;;;;;;;;21.00;20.33;;;;;19.69;63.77;101639.72;5033466;28;9483;-67
2022/09/04 07:14:48;;;;;;;;;29.00;27.00;;;;;19.73;63.80;101646.38;5034413;28;10075;-67
2022/09/04 07:17:32;;;;;;;;;26.00;25.00;;;;;19.76;63.59;101643.13;5040779;28;10326;-67
2022/09/04 07:20:18;;;;;;;;;27.00;24.67;;;;;19.81;63.56;101655.25;5037112;28;9235;-67
2022/09/04 07:22:56;;;;;;;;;29.67;29.67;;;;;19.82;63.64;101660.50;5043584;28;9378;-69
2022/09/04 07:25:39;;;;;;;;;21.33;20.33;;;;;19.86;63.48;101652.69;5049177;28;9670;-67
2022/09/04 07:28:32;;;;;;;;;21.67;20.33;;;;;19.90;63.51;101649.22;5042492;28;9067;-67
2022/09/04 07:31:02;;;;;;;;;31.00;27.75;;;;;19.94;63.55;101658.63;5039485;28;9207;-66
2022/09/04 07:33:44;;;;;;;;;24.00;24.00;;;;;19.93;63.89;101654.22;5040720;28;9420;-67
2022/09/04 07:36:24;;;;;;;;;25.33;22.67;;;;;19.97;64.00;101663.63;5054079;28;9400;-67
2022/09/04 07:39:36;;;;;;;;;27.67;25.67;;;;;20.05;63.69;101659.66;5048079;28;9324;-67
2022/09/04 07:42:14;;;;;;;;;16.67;14.67;;;;;20.08;63.79;101672.03;5049622;28;9306;-68
2022/09/04 07:44:57;;;;;;;;;19.67;18.33;;;;;20.12;63.64;101657.66;5052317;28;9155;-66
2022/09/04 07:47:37;;;;;;;;;25.00;25.00;;;;;20.16;63.73;101661.56;5052142;28;9015;-67
2022/09/04 07:50:13;;;;;;;;;26.33;22.67;;;;;20.23;63.64;101658.72;5050580;28;9306;-66
2022/09/04 07:53:32;;;;;;;;;26.00;24.00;;;;;20.28;63.69;101661.56;5053619;28;9361;-66
2022/09/04 07:56:37;;;;;;;;;21.00;20.00;;;;;20.36;63.63;101674.06;4991703;28;9256;-66
2022/09/04 07:59:46;;;;;;;;;22.33;22.33;;;;;20.43;63.33;101680.25;5044659;28;9174;-65
2022/09/04 08:02:55;;;;;;;;;19.67;19.67;;;;;20.48;63.25;101683.09;5045918;28;9177;-66
2022/09/04 08:05:36;;;;;;;;;23.00;23.00;;;;;20.54;63.27;101687.63;5043401;28;9173;-67
2022/09/04 08:08:26;;;;;;;;;22.33;20.33;;;;;20.60;63.31;101691.31;5044232;28;9098;-68
2022/09/04 08:11:03;;;;;;;;;20.67;20.33;;;;;20.65;63.00;101691.41;5007271;28;9157;-66
2022/09/04 08:13:48;;;;;;;;;24.00;23.00;;;;;20.70;63.08;101697.84;5032959;28;9079;-66
2022/09/04 08:16:22;;;;;;;;;22.00;20.67;;;;;20.77;63.04;101696.84;5048900;28;9011;-66
2022/09/04 08:19:34;;;;;;;;;20.00;17.67;;;;;20.82;63.13;101706.00;5045330;28;8961;-67
2022/09/04 08:22:03;;;;;;;;;17.25;17.25;;;;;20.89;62.91;101705.88;5040776;28;8943;-66
2022/09/04 08:25:08;;;;;;;;;18.00;17.00;;;;;20.94;62.76;101701.34;5038094;28;8860;-66
2022/09/04 08:27:55;;;;;;;;;27.00;27.00;;;;;20.98;62.82;101702.53;4970667;28;8851;-66
2022/09/04 08:30:22;;;;;;;;;31.33;30.33;;;;;20.91;62.84;101706.47;5032015;28;9177;-66
2022/09/04 08:33:02;;;;;;;;;30.33;29.67;;;;;20.93;63.21;101705.13;5047419;28;9304;-66
2022/09/04 08:35:36;;;;;;;;;19.75;19.00;;;;;20.95;62.94;101703.00;5047613;28;10045;-66
2022/09/04 08:38:13;;;;;;;;;24.67;21.33;;;;;21.00;62.93;101710.50;5047935;28;8849;-66
2022/09/04 08:40:58;;;;;;;;;21.67;21.33;;;;;21.05;62.95;101713.31;5032500;28;8947;-66
2022/09/04 08:43:44;;;;;;;;;28.00;27.33;;;;;21.12;63.17;101711.28;5039281;28;9002;-65
2022/09/04 08:46:30;;;;;;;;;34.00;31.67;;;;;21.17;63.25;101718.75;5034563;28;9065;-65
2022/09/04 08:49:23;;;;;;;;;22.50;22.50;;;;;21.27;63.05;101721.72;5041865;28;10010;-70
2022/09/04 08:52:11;;;;;;;;;21.50;21.25;;;;;21.34;62.53;101727.06;5047474;28;9558;-66
2022/09/04 08:54:57;;;;;;;;;19.25;16.50;;;;;21.43;62.63;101729.19;5032326;28;8914;-67
2022/09/04 08:57:27;;;;;;;;;21.00;19.25;;;;;21.54;62.36;101727.44;5036069;28;8833;-66
2022/09/04 09:00:10;;;;;;;;;22.00;20.25;;;;;21.63;62.31;101725.13;5043772;28;8853;-67
2022/09/04 09:02:58;;;;;;;;;24.67;21.00;;;;;21.68;62.39;101726.06;5046158;28;8830;-69
2022/09/04 09:05:57;;;;;;;;;22.50;18.00;;;;;21.75;62.21;101728.63;5049883;28;8975;-66
2022/09/04 09:08:49;;;;;;;;;21.00;19.25;;;;;21.80;62.30;101726.00;5016356;28;9544;-66
2022/09/04 09:11:20;;;;;;;;;26.75;22.75;;;;;21.86;62.01;101726.91;5050199;28;9630;-66
2022/09/04 09:14:15;;;;;;;;;20.00;19.00;;;;;21.90;61.98;101736.31;5051369;28;8937;-66
2022/09/04 09:17:05;;;;;;;;;27.33;24.33;;;;;21.93;62.24;101730.34;5031557;28;8860;-66
2022/09/04 09:19:42;;;;;;;;;26.25;24.00;;;;;22.00;62.41;101727.41;5031571;28;9108;-66
2022/09/04 09:22:27;;;;;;;;;25.67;25.67;;;;;22.06;62.23;101726.41;5036898;28;8825;-67
2022/09/04 09:25:14;;;;;;;;;18.25;18.00;;;;;22.13;61.80;101719.72;5050734;28;9031;-66
2022/09/04 09:28:08;;;;;;;;;17.75;16.00;;;;;22.22;61.67;101725.63;5036552;28;8840;-66
2022/09/04 09:31:12;;;;;;;;;21.75;19.25;;;;;22.28;61.03;101721.03;5047704;28;8834;-67
2022/09/04 09:33:48;;;;;;;;;14.75;13.00;;;;;22.30;60.88;101718.88;5051444;28;8869;-67
2022/09/04 09:36:36;;;;;;;;;12.75;12.75;;;;;22.38;60.87;101726.69;5047239;28;8840;-67
2022/09/04 09:39:11;;;;;;;;;13.00;13.00;;;;;22.44;60.70;101725.66;5049380;28;8838;-67
2022/09/04 09:42:12;;;;;;;;;14.00;13.00;;;;;22.45;60.78;101728.16;5048879;28;8822;-67
2022/09/04 09:45:16;;;;;;;;;15.25;15.25;;;;;22.47;61.12;101727.91;5048910;28;8924;-66
2022/09/04 09:48:10;;;;;;;;;17.00;16.50;;;;;22.50;60.90;101729.34;5031357;28;8859;-67
2022/09/04 09:50:55;;;;;;;;;14.75;14.25;;;;;22.54;60.72;101723.09;5034380;28;8856;-66
2022/09/04 09:54:06;;;;;;;;;12.00;11.75;;;;;22.58;60.55;101731.63;5048792;28;8842;-65
2022/09/04 09:56:59;;;;;;;;;16.00;16.00;;;;;22.61;60.58;101729.22;5037699;28;8847;-66
2022/09/04 09:59:53;;;;;;;;;16.75;15.75;;;;;22.66;60.48;101726.53;5034346;28;8830;-65
2022/09/04 10:02:34;;;;;;;;;16.25;16.25;;;;;22.73;60.22;101731.00;5038084;28;8876;-67
2022/09/04 10:05:43;;;;;;;;;18.25;18.25;;;;;22.77;60.04;101730.25;5058468;28;8869;-67
2022/09/04 10:08:28;;;;;;;;;14.00;13.50;;;;;22.83;59.92;101736.66;5038718;28;8968;-66
2022/09/04 10:11:43;;;;;;;;;20.75;20.25;;;;;22.88;60.17;101731.22;5022069;28;8824;-67
2022/09/04 10:14:24;;;;;;;;;28.00;26.75;;;;;22.88;60.22;101733.94;5024670;28;8975;-67
2022/09/04 10:16:59;;;;;;;;;19.00;18.00;;;;;22.93;59.98;101739.56;5050266;28;8849;-67
2022/09/04 10:19:47;;;;;;;;;19.00;18.00;;;;;23.01;59.90;101732.78;5040791;28;8873;-67
2022/09/04 10:22:32;;;;;;;;;23.00;18.25;;;;;23.05;59.83;101731.16;5050241;28;8810;-67
2022/09/04 10:25:34;;;;;;;;;15.00;15.00;;;;;23.06;59.08;101738.34;5049555;28;8826;-66
2022/09/04 10:28:19;;;;;;;;;14.00;13.00;;;;;23.08;59.23;101741.66;5044925;28;8852;-66
2022/09/04 10:31:13;;;;;;;;;18.00;17.50;;;;;23.12;59.35;101740.88;5047580;28;8844;-67
2022/09/04 10:34:03;;;;;;;;;23.50;21.75;;;;;23.16;59.50;101747.53;5038309;28;8846;-66
2022/09/04 10:37:03;;;;;;;;;18.25;18.00;;;;;23.23;59.22;101741.03;5041080;28;8972;-65
2022/09/04 10:43:07;;;;;;;;;20.75;20.00;;;;;23.31;59.49;101754.28;5034168;28;8836;-66
2022/09/04 10:45:38;;;;;;;;;26.75;25.00;;;;;23.33;59.44;101754.84;5041978;28;8833;-66
2022/09/04 10:48:28;;;;;;;;;19.75;17.75;;;;;23.39;58.99;101751.09;5042116;28;8918;-66
2022/09/04 10:51:19;;;;;;;;;23.25;21.50;;;;;23.41;58.79;101754.41;5048140;28;8854;-66
2022/09/04 10:54:05;;;;;;;;;14.25;13.75;;;;;23.46;58.82;101746.22;5044653;28;8826;-69
2022/09/04 10:57:07;;;;;;;;;13.75;13.75;;;;;23.54;58.32;101747.69;5049178;28;8849;-66
2022/09/04 10:59:46;;;;;;;;;13.75;13.75;;;;;23.56;57.65;101751.81;5030443;28;8879;-66
2022/09/04 11:02:35;;;;;;;;;19.50;18.25;;;;;23.64;57.32;101742.28;5030153;28;8840;-66
2022/09/04 11:05:23;;;;;;;;;19.25;17.25;;;;;23.71;57.34;101747.59;5031951;28;8825;-65
2022/09/04 11:08:12;;;;;;;;;22.25;18.25;;;;;23.82;56.78;101752.09;5035447;28;9609;-66
2022/09/04 11:10:53;;;;;;;;;13.50;13.50;;;;;23.86;55.64;101751.34;5046298;28;8821;-66
2022/09/04 11:13:22;;;;;;;;;14.50;14.50;;;;;23.90;55.49;101749.72;5054348;28;8822;-67
2022/09/04 11:16:25;;;;;;;;;14.00;13.50;;;;;23.96;55.74;101756.09;5052992;28;8903;-67
2022/09/04 11:19:27;;;;;;;;;12.50;11.50;;;;;24.02;55.79;101760.53;5047554;28;8837;-67
2022/09/04 11:22:38;;;;;;;;;11.00;11.00;;;;;24.10;55.67;101757.28;4976265;28;8932;-67
2022/09/04 11:25:44;;;;;;;;;15.00;14.25;;;;;24.12;54.51;101751.53;5044544;28;8890;-67
2022/09/04 11:28:49;;;;;;;;;12.00;11.00;;;;;24.10;54.21;101750.97;5047693;28;8842;-69
2022/09/04 11:31:47;;;;;;;;;18.00;17.25;;;;;24.15;54.75;101751.84;5043999;28;8837;-67
2022/09/04 11:34:20;;;;;;;;;15.75;15.00;;;;;24.21;55.18;101749.13;5049227;28;8826;-67
2022/09/04 11:37:07;;;;;;;;;15.75;14.00;;;;;24.26;54.64;101743.66;5050271;28;8822;-67
2022/09/04 11:39:49;;;;;;;;;9.50;9.50;;;;;24.32;55.03;101746.19;5043275;28;9503;-68
2022/09/04 11:42:32;;;;;;;;;3.50;3.00;;;;;24.38;55.13;101738.81;5047330;28;8829;-67
2022/09/04 11:45:15;;;;;;;;;12.75;12.50;;;;;24.42;54.58;101740.78;5043242;28;8915;-68
2022/09/04 11:48:10;;;;;;;;;12.67;12.67;;;;;24.47;54.31;101748.25;5044174;28;8798;-68
2022/09/04 11:50:55;;;;;;;;;9.50;9.00;;;;;24.49;53.67;101742.47;5045947;28;8825;-67
2022/09/04 11:53:51;;;;;;;;;12.00;12.00;;;;;24.51;53.30;101740.28;5046712;28;9067;-67
2022/09/04 11:56:33;;;;;;;;;15.75;14.00;;;;;24.53;53.69;101743.59;5043803;28;8830;-67
2022/09/04 11:59:36;;;;;;;;;8.00;8.00;;;;;24.57;53.66;101740.06;5044453;28;8883;-68
2022/09/04 12:02:24;;;;;;;;;8.50;8.50;;;;;24.59;53.30;101748.03;5040974;28;8841;-66
2022/09/04 12:05:42;;;;;;;;;9.25;9.00;;;;;24.55;52.94;101745.00;5044252;28;9584;-67
2022/09/04 12:08:28;;;;;;;;;12.50;12.00;;;;;24.62;52.96;101753.00;5042457;28;8854;-67
2022/09/04 12:11:00;;;;;;;;;10.25;10.25;;;;;24.67;52.99;101751.13;5043914;28;8830;-67
2022/09/04 12:13:51;;;;;;;;;14.50;13.50;;;;;24.74;52.65;101752.81;5040558;28;8834;-66
2022/09/04 12:16:41;;;;;;;;;9.00;9.00;;;;;24.79;52.36;101747.31;5044615;28;8833;-66
2022/09/04 12:19:49;;;;;;;;;10.75;10.75;;;;;24.85;52.39;101751.78;5043314;28;8844;-67
2022/09/04 12:22:53;;;;;;;;;10.25;10.25;;;;;24.93;52.26;101745.75;5041285;28;8852;-67
2022/09/04 12:25:41;;;;;;;;;13.50;13.50;;;;;24.96;52.33;101749.91;5045748;28;8818;-66
2022/09/04 12:28:36;;;;;;;;;18.50;18.00;;;;;24.89;52.31;101752.91;5046199;28;8898;-66
2022/09/04 12:31:49;;;;;;;;;15.50;15.00;;;;;24.89;51.92;101752.91;5045652;28;8909;-67
2022/09/04 12:34:41;;;;;;;;;12.75;11.75;;;;;24.91;52.12;101756.19;5040792;28;8820;-67
2022/09/04 12:37:42;;;;;;;;;11.75;11.75;;;;;24.93;52.42;101756.78;5039207;28;8928;-67
2022/09/04 12:40:24;;;;;;;;;8.50;8.50;;;;;24.99;51.61;101761.19;5042731;28;8888;-67
2022/09/04 12:42:56;;;;;;;;;10.00;10.00;;;;;25.08;51.37;101756.84;5044940;28;8844;-67
2022/09/04 12:45:41;;;;;;;;;7.00;7.00;;;;;25.07;51.41;101757.09;5042408;28;8941;-67
2022/09/04 12:48:55;;;;;;;;;10.50;8.25;;;;;24.97;51.44;101752.38;5042216;28;8821;-67
2022/09/04 12:51:25;;;;;;;;;6.00;6.00;;;;;25.01;51.80;101755.44;5043031;28;8840;-68